High Bridge, WI (54846)

9:53 AM CST on December 03, 2016 (GMT -0600)
Ashland, WI | | Change Station

Elev 764 ft 46.53 °N, 90.88 °W | Updated 6 seconds ago

Overcast
Overcast
31.6 °F
Feels Like 32 °F
N
0.0
Wind Variable Wind from South
Gusts 0.0 mph

Today
High -- | Low -- °F
--% Chance of Precip.
Yesterday
High -- | Low -- °F
Precip. -- in
Pressure 30.29 in
Visibility 10.0 miles
Clouds Scattered Clouds 1600 ft
Overcast 4000 ft
Windchill 32 °F
Dew Point 26 °F
Humidity 79%
Rainfall 0.00 in
Snow Depth Not available.
7:28 AM 4:17 PM
Waxing Crescent, 15% visible
SPECI KASX 031548Z AUTO 24005KT 10SM SCT016 OVC040 M01/M03 A3029 RMK AO2 $
Pressure 30.29 in
Visibility 10.0 miles
Clouds Scattered Clouds 1600 ft
Overcast 4000 ft
Windchill 32 °F
Dew Point 26 °F
Humidity 79%
Rainfall 0.00 in
Snow Depth Not available.
7:28 AM 4:17 PM
Waxing Crescent, 15% visible
SPECI KASX 031548Z AUTO 24005KT 10SM SCT016 OVC040 M01/M03 A3029 RMK AO2 $

10-Day Weather Forecast

Almanac

Astronomy

Dec. 03, 2016 Rise Set
Actual Time
Civil Twilight
Nautical Twilight
Astronomical Twilight
Moon
Length of Visible Light
Length of Day
Tomorrow will be .
, % of the Moon is Illuminated

Today's Extremes

State Highs State Lows

Community

WunderPhotos

Upload Photos

1,955,427 photos uploaded!

WunderBlog® & News

Nearby

Air Quality

  Air Quality AQ Index Pollutant
Not available.

Snow Depth

Station Depth Elevation

Earthquake Activity

City Distance Mag. Time & Date
Minimum magnitude displayed is 2.5.

Coastal Water Temperatures

Place Temperature

Stations

Nearby Weather Stations

Station Location Temp. Windchill Dew Point Humidity Wind Precip. Elev Updated Type
                   

Watches & Warnings

There are currently no watches in effect.